Time;durP1;ratioP1;P1;durP2;ratioP2;P2;SDS_P1;SDS_P2;PMS_P1;PMS_P2;Temp;Humidity;BMP_temperature;BMP_pressure;BME280_temperature;BME280_humidity;BME280_pressure;Samples;Min_cycle;Max_cycle;Signal;HPM_P1;HPM_P2
2023/12/07 00:00:43;;;;;;;17.77;8.53;;;;;;;;;;6021087;29;20321;-68
2023/12/07 00:03:47;;;;;;;16.90;8.77;;;;;;;;;;6020640;29;20305;-69
2023/12/07 00:06:51;;;;;;;17.30;8.30;;;;;;;;;;6020818;29;20364;-68
2023/12/07 00:09:55;;;;;;;17.57;7.87;;;;;;;;;;6016421;29;20492;-68
2023/12/07 00:12:59;;;;;;;21.40;7.77;;;;;;;;;;6003874;29;20336;-68
2023/12/07 00:16:05;;;;;;;16.27;8.03;;;;;;;;;;5998749;29;20292;-69
2023/12/07 00:19:09;;;;;;;12.27;7.17;;;;;;;;;;5988972;29;20311;-68
2023/12/07 00:22:12;;;;;;;11.47;6.13;;;;;;;;;;5996719;29;20314;-68
2023/12/07 00:25:17;;;;;;;15.93;7.50;;;;;;;;;;6004752;29;20306;-68
2023/12/07 00:28:21;;;;;;;12.53;6.50;;;;;;;;;;5997943;29;20499;-69
2023/12/07 00:31:26;;;;;;;10.97;6.63;;;;;;;;;;5998919;29;20306;-69
2023/12/07 00:34:30;;;;;;;10.07;6.07;;;;;;;;;;5998247;29;20303;-68
2023/12/07 00:37:34;;;;;;;10.33;6.03;;;;;;;;;;6012068;29;20299;-68
2023/12/07 00:40:39;;;;;;;11.80;5.77;;;;;;;;;;6020722;29;20494;-69
2023/12/07 00:43:43;;;;;;;8.30;5.47;;;;;;;;;;6020159;29;20298;-68
2023/12/07 00:46:49;;;;;;;7.20;5.50;;;;;;;;;;6020732;29;20298;-69
2023/12/07 00:49:53;;;;;;;7.30;5.40;;;;;;;;;;6020771;29;20302;-70
2023/12/07 00:52:57;;;;;;;6.77;5.13;;;;;;;;;;6020190;29;20304;-69
2023/12/07 00:56:00;;;;;;;5.83;4.70;;;;;;;;;;6020954;29;20339;-68
2023/12/07 00:59:04;;;;;;;6.87;4.63;;;;;;;;;;6020018;29;20325;-69
2023/12/07 01:02:10;;;;;;;5.00;4.57;;;;;;;;;;6020640;29;20306;-68
2023/12/07 01:05:14;;;;;;;10.03;5.33;;;;;;;;;;6020556;29;20584;-68
2023/12/07 01:08:18;;;;;;;5.47;4.77;;;;;;;;;;6022570;29;20303;-69
2023/12/07 01:11:21;;;;;;;6.70;4.50;;;;;;;;;;6010051;29;20496;-68
2023/12/07 01:14:25;;;;;;;6.57;4.87;;;;;;;;;;6001331;29;20310;-68
2023/12/07 01:17:30;;;;;;;7.40;4.30;;;;;;;;;;6002248;29;20306;-68
2023/12/07 01:20:34;;;;;;;5.20;4.70;;;;;;;;;;5999478;29;20303;-68
2023/12/07 01:23:38;;;;;;;5.20;4.70;;;;;;;;;;6008459;29;20641;-69
2023/12/07 01:26:43;;;;;;;4.57;4.13;;;;;;;;;;6000807;29;20298;-69
2023/12/07 01:29:48;;;;;;;5.87;4.13;;;;;;;;;;5993297;29;20304;-68
2023/12/07 01:32:54;;;;;;;4.70;4.07;;;;;;;;;;6000835;29;20314;-69
2023/12/07 01:35:58;;;;;;;4.10;3.90;;;;;;;;;;6008958;29;20311;-68
2023/12/07 01:39:03;;;;;;;4.70;4.20;;;;;;;;;;6018889;29;20365;-68
2023/12/07 01:42:06;;;;;;;4.67;4.17;;;;;;;;;;6023953;29;20462;-69
2023/12/07 01:45:10;;;;;;;4.77;4.47;;;;;;;;;;6021770;29;20625;-69
2023/12/07 01:48:16;;;;;;;4.33;3.97;;;;;;;;;;6037833;29;20563;-68
2023/12/07 01:51:20;;;;;;;5.97;4.00;;;;;;;;;;6023955;29;20297;-68
2023/12/07 01:54:25;;;;;;;5.20;4.00;;;;;;;;;;6023208;29;20295;-68
2023/12/07 01:57:29;;;;;;;6.40;4.70;;;;;;;;;;6023500;29;20297;-68
2023/12/07 02:00:34;;;;;;;4.43;4.00;;;;;;;;;;6012796;29;20301;-68
2023/12/07 02:03:41;;;;;;;4.40;4.00;;;;;;;;;;6021011;29;20306;-68
2023/12/07 02:06:45;;;;;;;3.97;3.70;;;;;;;;;;6030245;29;20298;-69
2023/12/07 02:09:50;;;;;;;5.17;4.10;;;;;;;;;;6020253;29;20314;-68
2023/12/07 02:12:55;;;;;;;5.50;3.97;;;;;;;;;;6000077;29;20300;-68
2023/12/07 02:15:59;;;;;;;5.43;3.90;;;;;;;;;;6000735;29;20304;-68
2023/12/07 02:19:16;;;;;;;4.37;4.10;;;;;;;;;;5999414;29;20312;-69
2023/12/07 02:22:25;;;;;;;4.67;4.10;;;;;;;;;;6000701;29;20308;-68
2023/12/07 02:25:33;;;;;;;3.50;3.20;;;;;;;;;;6000568;29;20330;-67
2023/12/07 02:28:38;;;;;;;3.37;3.20;;;;;;;;;;5999570;29;20296;-68
2023/12/07 02:31:42;;;;;;;4.07;3.77;;;;;;;;;;6000222;29;20295;-68
2023/12/07 02:34:47;;;;;;;3.73;3.53;;;;;;;;;;6004992;29;20472;-68
2023/12/07 02:37:52;;;;;;;4.07;3.80;;;;;;;;;;6006583;29;20296;-68
2023/12/07 02:40:56;;;;;;;3.90;3.63;;;;;;;;;;6023282;29;20303;-68
2023/12/07 02:44:02;;;;;;;5.00;3.67;;;;;;;;;;6027658;29;20307;-68
2023/12/07 02:47:06;;;;;;;3.90;3.60;;;;;;;;;;6023574;29;20318;-68
2023/12/07 02:50:10;;;;;;;4.03;3.73;;;;;;;;;;6000100;29;20597;-68
2023/12/07 02:53:14;;;;;;;3.63;3.40;;;;;;;;;;5999709;29;20569;-68
2023/12/07 02:56:18;;;;;;;3.60;3.37;;;;;;;;;;6000036;29;20308;-68
2023/12/07 02:59:23;;;;;;;3.77;3.43;;;;;;;;;;5999855;29;20308;-69
2023/12/07 03:02:27;;;;;;;3.57;3.30;;;;;;;;;;6000119;29;20304;-68
2023/12/07 03:05:31;;;;;;;3.73;3.43;;;;;;;;;;5999324;29;20321;-69
2023/12/07 03:08:35;;;;;;;3.67;3.40;;;;;;;;;;5999231;29;20578;-68
2023/12/07 03:11:39;;;;;;;3.30;3.20;;;;;;;;;;6020133;29;20333;-67
2023/12/07 03:14:44;;;;;;;3.23;3.03;;;;;;;;;;6021284;29;20298;-69
2023/12/07 03:17:49;;;;;;;3.57;3.27;;;;;;;;;;6021484;29;20292;-68
2023/12/07 03:20:53;;;;;;;3.77;3.27;;;;;;;;;;6022014;29;20569;-69
2023/12/07 03:23:57;;;;;;;3.30;2.80;;;;;;;;;;6011972;29;20488;-68
2023/12/07 03:27:01;;;;;;;2.97;2.90;;;;;;;;;;6022407;29;20470;-68
2023/12/07 03:30:08;;;;;;;3.27;3.07;;;;;;;;;;6021417;29;20304;-68
2023/12/07 03:33:11;;;;;;;3.30;3.10;;;;;;;;;;6021388;29;20564;-69
2023/12/07 03:36:16;;;;;;;3.00;2.90;;;;;;;;;;6019361;29;20290;-68
2023/12/07 03:39:22;;;;;;;3.10;3.00;;;;;;;;;;6028002;29;20304;-68
2023/12/07 03:42:26;;;;;;;2.87;2.73;;;;;;;;;;6022395;29;20581;-69
2023/12/07 03:45:52;;;;;;;2.80;2.60;;;;;;;;;;6026794;29;20315;-69
2023/12/07 03:48:56;;;;;;;3.03;2.93;;;;;;;;;;6018969;29;20316;-68
2023/12/07 03:51:59;;;;;;;2.83;2.63;;;;;;;;;;6028473;29;20497;-68
2023/12/07 03:55:05;;;;;;;3.00;2.90;;;;;;;;;;6011150;29;20303;-69
2023/12/07 03:58:09;;;;;;;2.93;2.80;;;;;;;;;;6009229;29;20307;-68
2023/12/07 04:01:14;;;;;;;2.93;2.83;;;;;;;;;;6020220;29;20312;-69
2023/12/07 04:04:18;;;;;;;3.43;3.23;;;;;;;;;;6011496;29;20329;-69
2023/12/07 04:07:23;;;;;;;3.17;3.00;;;;;;;;;;6018952;29;20475;-68
2023/12/07 04:10:27;;;;;;;3.07;2.90;;;;;;;;;;6010808;29;20302;-68
2023/12/07 04:13:31;;;;;;;3.30;3.00;;;;;;;;;;6022940;29;20492;-68
2023/12/07 04:16:36;;;;;;;3.80;3.20;;;;;;;;;;6017992;29;20311;-68
2023/12/07 04:19:40;;;;;;;2.57;2.50;;;;;;;;;;6017374;29;20304;-69
2023/12/07 04:22:45;;;;;;;2.90;2.80;;;;;;;;;;5997384;29;20573;-69
2023/12/07 04:25:49;;;;;;;3.00;2.90;;;;;;;;;;5998929;29;20293;-68
2023/12/07 04:28:53;;;;;;;2.77;2.70;;;;;;;;;;6006405;29;20304;-70
2023/12/07 04:31:58;;;;;;;3.00;2.90;;;;;;;;;;6021818;29;20305;-68
2023/12/07 04:35:02;;;;;;;3.00;2.80;;;;;;;;;;6020556;29;20592;-69
2023/12/07 04:38:06;;;;;;;2.90;2.80;;;;;;;;;;6022763;29;20311;-69
2023/12/07 04:41:10;;;;;;;2.93;2.83;;;;;;;;;;6020853;29;20312;-69
2023/12/07 04:44:14;;;;;;;2.80;2.60;;;;;;;;;;6024013;29;20499;-68
2023/12/07 04:47:19;;;;;;;2.90;2.80;;;;;;;;;;6025452;29;20315;-68
2023/12/07 04:50:23;;;;;;;2.93;2.83;;;;;;;;;;6024559;29;20488;-68
2023/12/07 04:53:27;;;;;;;3.20;2.90;;;;;;;;;;6019855;29;20295;-70
2023/12/07 04:56:31;;;;;;;2.90;2.80;;;;;;;;;;6031647;29;20300;-69
2023/12/07 04:59:36;;;;;;;2.60;2.50;;;;;;;;;;6024721;29;20474;-68
2023/12/07 05:02:43;;;;;;;2.77;2.70;;;;;;;;;;6038522;29;20303;-68
2023/12/07 05:05:48;;;;;;;2.80;2.70;;;;;;;;;;6024677;29;20411;-68
2023/12/07 05:08:52;;;;;;;3.00;2.90;;;;;;;;;;6013901;29;20305;-68
2023/12/07 05:11:56;;;;;;;2.77;2.67;;;;;;;;;;6005363;29;20303;-68
2023/12/07 05:14:59;;;;;;;2.77;2.67;;;;;;;;;;6001673;29;25792;-68
2023/12/07 05:18:05;;;;;;;3.13;2.83;;;;;;;;;;6001490;29;20475;-69
2023/12/07 05:21:09;;;;;;;2.67;2.63;;;;;;;;;;6001753;29;20596;-68
2023/12/07 05:24:13;;;;;;;3.27;3.07;;;;;;;;;;6001808;29;20306;-68
2023/12/07 05:27:17;;;;;;;2.70;2.53;;;;;;;;;;6001633;29;20456;-68
2023/12/07 05:30:21;;;;;;;2.50;2.50;;;;;;;;;;6000964;29;20300;-68
2023/12/07 05:33:26;;;;;;;2.80;2.70;;;;;;;;;;6001284;29;20322;-69
2023/12/07 05:36:30;;;;;;;3.13;2.93;;;;;;;;;;6007762;29;20590;-69
2023/12/07 05:39:34;;;;;;;3.00;2.90;;;;;;;;;;6023752;29;20301;-68
2023/12/07 05:42:38;;;;;;;3.10;2.93;;;;;;;;;;6024287;29;20329;-68
2023/12/07 05:45:42;;;;;;;3.17;3.07;;;;;;;;;;6024400;29;20304;-69
2023/12/07 05:48:47;;;;;;;2.83;2.67;;;;;;;;;;6023286;29;20464;-68
2023/12/07 05:51:52;;;;;;;2.80;2.70;;;;;;;;;;6024298;29;20301;-69
2023/12/07 05:54:57;;;;;;;3.30;3.00;;;;;;;;;;6022322;29;20303;-69
2023/12/07 05:58:01;;;;;;;3.30;3.10;;;;;;;;;;6023556;29;20301;-68
2023/12/07 06:01:05;;;;;;;3.30;3.10;;;;;;;;;;6023041;29;20305;-68
2023/12/07 06:04:12;;;;;;;2.73;2.73;;;;;;;;;;6022208;29;20322;-68
2023/12/07 06:07:16;;;;;;;3.03;2.90;;;;;;;;;;6023131;29;20310;-66
2023/12/07 06:10:20;;;;;;;3.03;3.00;;;;;;;;;;6015292;29;20476;-67
2023/12/07 06:13:24;;;;;;;3.17;2.97;;;;;;;;;;6000733;29;20306;-67
2023/12/07 06:16:28;;;;;;;3.00;2.90;;;;;;;;;;6000448;29;20301;-68
2023/12/07 06:19:33;;;;;;;2.97;2.87;;;;;;;;;;5999881;29;20297;-68
2023/12/07 06:22:37;;;;;;;3.30;3.10;;;;;;;;;;5999508;29;20319;-67
2023/12/07 06:25:41;;;;;;;3.00;2.87;;;;;;;;;;6007220;29;20317;-67
2023/12/07 06:28:45;;;;;;;3.40;3.17;;;;;;;;;;5999377;29;20462;-68
2023/12/07 06:31:49;;;;;;;3.30;3.20;;;;;;;;;;5999718;29;20319;-68
2023/12/07 06:34:54;;;;;;;3.43;3.23;;;;;;;;;;5999562;29;20615;-68
2023/12/07 06:37:58;;;;;;;3.10;2.90;;;;;;;;;;6016211;29;20309;-68
2023/12/07 06:41:03;;;;;;;2.93;2.83;;;;;;;;;;6020058;29;20293;-69
2023/12/07 06:44:08;;;;;;;3.13;3.03;;;;;;;;;;6022669;29;20493;-69
2023/12/07 06:47:12;;;;;;;3.50;3.30;;;;;;;;;;5999666;29;20482;-70
2023/12/07 06:50:17;;;;;;;3.40;3.20;;;;;;;;;;5999389;29;20266;-69
2023/12/07 06:53:21;;;;;;;3.00;2.90;;;;;;;;;;5999379;29;20314;-67
2023/12/07 06:56:25;;;;;;;3.23;3.13;;;;;;;;;;5999861;29;20298;-67
2023/12/07 06:59:28;;;;;;;3.37;3.27;;;;;;;;;;5999069;29;20298;-68
2023/12/07 07:02:32;;;;;;;3.53;3.30;;;;;;;;;;5999026;29;20309;-68
2023/12/07 07:05:38;;;;;;;3.20;3.00;;;;;;;;;;5998928;29;20373;-67
2023/12/07 07:08:42;;;;;;;3.00;2.80;;;;;;;;;;5998842;29;20565;-67
2023/12/07 07:11:48;;;;;;;3.40;3.20;;;;;;;;;;6016602;29;20301;-66
2023/12/07 07:14:52;;;;;;;2.97;2.87;;;;;;;;;;6020895;29;20297;-66
2023/12/07 07:17:56;;;;;;;3.37;3.17;;;;;;;;;;6020783;29;20305;-66
2023/12/07 07:21:04;;;;;;;3.40;3.27;;;;;;;;;;6021126;29;20309;-66
2023/12/07 07:24:08;;;;;;;3.70;3.13;;;;;;;;;;6020752;29;20310;-66
2023/12/07 07:27:12;;;;;;;3.97;3.67;;;;;;;;;;6021671;29;20297;-66
2023/12/07 07:30:17;;;;;;;3.50;3.40;;;;;;;;;;6021103;29;20302;-66
2023/12/07 07:33:21;;;;;;;4.33;3.63;;;;;;;;;;6020974;29;20306;-70
2023/12/07 07:36:27;;;;;;;3.50;3.30;;;;;;;;;;6021465;29;20302;-67
2023/12/07 07:39:30;;;;;;;3.43;3.33;;;;;;;;;;6020438;29;20294;-68
2023/12/07 07:42:35;;;;;;;4.57;4.17;;;;;;;;;;6020634;29;20299;-68
2023/12/07 07:45:38;;;;;;;4.10;3.73;;;;;;;;;;6021151;29;20583;-67
2023/12/07 07:48:42;;;;;;;3.70;3.50;;;;;;;;;;6020687;29;20306;-68
2023/12/07 07:51:47;;;;;;;3.60;3.40;;;;;;;;;;6020652;29;20297;-67
2023/12/07 07:54:51;;;;;;;3.67;3.37;;;;;;;;;;6020351;29;20305;-67
2023/12/07 07:57:55;;;;;;;3.63;3.43;;;;;;;;;;6020772;29;20318;-67
2023/12/07 08:00:59;;;;;;;3.70;3.50;;;;;;;;;;6020675;29;20306;-66
2023/12/07 08:04:03;;;;;;;3.67;3.43;;;;;;;;;;6020051;29;20309;-66
2023/12/07 08:07:11;;;;;;;3.70;3.50;;;;;;;;;;6020219;29;20317;-66
2023/12/07 08:10:15;;;;;;;3.47;3.27;;;;;;;;;;6013652;29;20587;-66
2023/12/07 08:13:19;;;;;;;4.37;3.70;;;;;;;;;;5997769;29;20310;-67
2023/12/07 08:16:23;;;;;;;3.43;3.23;;;;;;;;;;5998728;29;20298;-66
2023/12/07 08:19:27;;;;;;;3.70;3.40;;;;;;;;;;6001880;29;20308;-67
2023/12/07 08:22:32;;;;;;;4.13;3.73;;;;;;;;;;6001774;29;20299;-67
2023/12/07 08:25:36;;;;;;;5.90;4.10;;;;;;;;;;6002634;29;20322;-67
2023/12/07 08:28:40;;;;;;;3.93;3.70;;;;;;;;;;6001772;29;20294;-67
2023/12/07 08:31:46;;;;;;;6.50;4.30;;;;;;;;;;6002484;29;20592;-67
2023/12/07 08:34:50;;;;;;;4.10;3.77;;;;;;;;;;6000793;29;20635;-67
2023/12/07 08:37:56;;;;;;;4.17;3.87;;;;;;;;;;6002288;29;20307;-67
2023/12/07 08:40:59;;;;;;;3.90;3.50;;;;;;;;;;6002613;29;20599;-66
2023/12/07 08:44:04;;;;;;;5.33;3.50;;;;;;;;;;6023819;29;20311;-67
2023/12/07 08:47:09;;;;;;;3.90;3.60;;;;;;;;;;6025024;29;20303;-67
2023/12/07 08:50:12;;;;;;;3.90;3.60;;;;;;;;;;6024475;29;20294;-67
2023/12/07 08:53:18;;;;;;;6.37;3.90;;;;;;;;;;6024607;29;20596;-67
2023/12/07 08:56:23;;;;;;;4.00;3.80;;;;;;;;;;6024795;29;20615;-67
2023/12/07 08:59:26;;;;;;;4.23;3.83;;;;;;;;;;6023975;29;20298;-66
2023/12/07 09:02:30;;;;;;;3.90;3.60;;;;;;;;;;6022790;29;20318;-67
2023/12/07 09:05:49;;;;;;;4.70;4.00;;;;;;;;;;6023441;29;20514;-67
2023/12/07 09:08:55;;;;;;;4.77;4.10;;;;;;;;;;6037815;29;20310;-67
2023/12/07 09:11:58;;;;;;;5.90;4.00;;;;;;;;;;6004695;29;20302;-66
2023/12/07 09:15:03;;;;;;;8.17;4.47;;;;;;;;;;6000822;29;20301;-67
2023/12/07 09:18:07;;;;;;;4.23;3.93;;;;;;;;;;6001000;29;20320;-67
2023/12/07 09:21:11;;;;;;;6.17;4.60;;;;;;;;;;6001639;29;20296;-67
2023/12/07 09:24:16;;;;;;;5.20;4.30;;;;;;;;;;6000944;29;20298;-67
2023/12/07 09:27:20;;;;;;;5.13;4.63;;;;;;;;;;6007507;29;20294;-67
2023/12/07 09:30:24;;;;;;;5.93;5.07;;;;;;;;;;6019857;29;20594;-67
2023/12/07 09:33:28;;;;;;;5.10;4.63;;;;;;;;;;6001014;29;20547;-67
2023/12/07 09:36:31;;;;;;;5.57;5.07;;;;;;;;;;6001371;29;20310;-67
2023/12/07 09:39:37;;;;;;;7.60;5.23;;;;;;;;;;6000382;29;20318;-68
2023/12/07 09:42:42;;;;;;;4.60;4.40;;;;;;;;;;6012721;29;20305;-67
2023/12/07 09:45:46;;;;;;;6.63;4.73;;;;;;;;;;6023214;29;20301;-66
2023/12/07 09:48:50;;;;;;;5.97;4.90;;;;;;;;;;6021972;29;20302;-67
2023/12/07 09:51:55;;;;;;;5.53;5.03;;;;;;;;;;6023823;29;20306;-66
2023/12/07 09:55:00;;;;;;;6.10;5.50;;;;;;;;;;6023607;29;20290;-67
2023/12/07 09:58:04;;;;;;;5.70;5.00;;;;;;;;;;6000223;29;20585;-66
2023/12/07 10:01:13;;;;;;;7.20;5.30;;;;;;;;;;6000695;29;20287;-66
2023/12/07 10:04:20;;;;;;;8.90;4.93;;;;;;;;;;6000208;29;20305;-66
2023/12/07 10:07:33;;;;;;;5.97;5.27;;;;;;;;;;6001169;29;20313;-67
2023/12/07 10:10:39;;;;;;;9.43;5.40;;;;;;;;;;6008698;29;20286;-68
2023/12/07 10:13:43;;;;;;;6.57;4.87;;;;;;;;;;6022816;29;20609;-67
2023/12/07 10:16:55;;;;;;;9.67;5.23;;;;;;;;;;6023032;29;20298;-66
2023/12/07 10:20:09;;;;;;;6.00;5.33;;;;;;;;;;6022383;29;20456;-66
2023/12/07 10:23:13;;;;;;;4.90;4.40;;;;;;;;;;5999952;29;20310;-67
2023/12/07 10:26:20;;;;;;;5.97;5.23;;;;;;;;;;6000679;29;20305;-66
2023/12/07 10:29:25;;;;;;;5.87;5.10;;;;;;;;;;5999809;29;20303;-66
2023/12/07 10:32:37;;;;;;;7.00;5.47;;;;;;;;;;5999573;29;20605;-66
2023/12/07 10:35:42;;;;;;;7.00;5.33;;;;;;;;;;5999578;29;20298;-67
2023/12/07 10:38:50;;;;;;;7.03;5.50;;;;;;;;;;5999272;29;20466;-68
2023/12/07 10:42:01;;;;;;;6.27;5.70;;;;;;;;;;6004775;29;20299;-67
2023/12/07 10:45:06;;;;;;;6.70;5.73;;;;;;;;;;6022137;29;20305;-67
2023/12/07 10:48:12;;;;;;;7.97;5.37;;;;;;;;;;6021460;29;20324;-67
2023/12/07 10:51:19;;;;;;;6.63;6.03;;;;;;;;;;6020836;29;20410;-68
2023/12/07 10:54:24;;;;;;;7.70;5.57;;;;;;;;;;6023131;29;20302;-67
2023/12/07 10:57:30;;;;;;;7.33;5.73;;;;;;;;;;6021759;29;20305;-67
2023/12/07 11:00:34;;;;;;;6.67;6.03;;;;;;;;;;6021922;29;20301;-66
2023/12/07 11:03:50;;;;;;;6.63;5.93;;;;;;;;;;6021372;29;20305;-66
2023/12/07 11:06:57;;;;;;;7.87;6.60;;;;;;;;;;6021566;29;20317;-65
2023/12/07 11:10:06;;;;;;;10.83;6.27;;;;;;;;;;6017401;29;20332;-68
2023/12/07 11:13:17;;;;;;;12.90;6.10;;;;;;;;;;6000014;29;20310;-67
2023/12/07 11:16:30;;;;;;;7.73;6.20;;;;;;;;;;5999560;29;20291;-66
2023/12/07 11:19:48;;;;;;;11.13;6.87;;;;;;;;;;5999041;29;20307;-66
2023/12/07 11:22:52;;;;;;;8.37;6.07;;;;;;;;;;5999115;29;20307;-66
2023/12/07 11:25:56;;;;;;;6.93;6.10;;;;;;;;;;5999473;29;20306;-66
2023/12/07 11:29:02;;;;;;;6.77;6.17;;;;;;;;;;5999350;29;20313;-68
2023/12/07 11:32:06;;;;;;;8.00;6.43;;;;;;;;;;5999199;29;20591;-67
2023/12/07 11:35:19;;;;;;;10.70;6.53;;;;;;;;;;5998777;29;20302;-67
2023/12/07 11:38:23;;;;;;;7.80;6.30;;;;;;;;;;5998354;29;20306;-67
2023/12/07 11:41:30;;;;;;;11.87;6.43;;;;;;;;;;6001514;29;20309;-66
2023/12/07 11:44:36;;;;;;;8.20;6.80;;;;;;;;;;6021050;29;20448;-67
2023/12/07 11:47:48;;;;;;;11.50;7.13;;;;;;;;;;6021958;29;20297;-66
2023/12/07 11:50:58;;;;;;;8.90;6.87;;;;;;;;;;6001914;29;20291;-66
2023/12/07 11:54:02;;;;;;;8.07;6.43;;;;;;;;;;6032127;29;20369;-67
2023/12/07 11:57:06;;;;;;;6.97;6.27;;;;;;;;;;6025997;29;20298;-67
2023/12/07 12:00:13;;;;;;;11.23;6.53;;;;;;;;;;5997726;29;20299;-67
2023/12/07 12:03:17;;;;;;;9.40;7.00;;;;;;;;;;5999356;29;20294;-66
2023/12/07 12:06:21;;;;;;;9.07;6.63;;;;;;;;;;5998609;29;20294;-67
2023/12/07 12:09:25;;;;;;;10.40;6.90;;;;;;;;;;5998079;29;20471;-67
2023/12/07 12:12:35;;;;;;;10.30;7.60;;;;;;;;;;5997817;29;20456;-66
2023/12/07 12:15:41;;;;;;;9.73;7.47;;;;;;;;;;5998247;29;20302;-66
2023/12/07 12:18:45;;;;;;;9.73;7.03;;;;;;;;;;5997061;29;20302;-66
2023/12/07 12:21:49;;;;;;;10.27;7.63;;;;;;;;;;5998088;29;20270;-67
2023/12/07 12:24:53;;;;;;;9.87;7.10;;;;;;;;;;5997904;29;20294;-66
2023/12/07 12:27:57;;;;;;;9.23;6.97;;;;;;;;;;5997383;29;20308;-66
2023/12/07 12:31:05;;;;;;;8.70;7.20;;;;;;;;;;5998375;29;20302;-66
2023/12/07 12:34:12;;;;;;;9.80;7.80;;;;;;;;;;5997518;29;20294;-67
2023/12/07 12:37:17;;;;;;;9.20;7.47;;;;;;;;;;5997830;29;20307;-67
2023/12/07 12:40:22;;;;;;;11.77;7.73;;;;;;;;;;5997411;29;20302;-67
2023/12/07 12:43:27;;;;;;;13.40;7.97;;;;;;;;;;5997437;29;20489;-67
2023/12/07 12:46:33;;;;;;;11.57;7.43;;;;;;;;;;5997383;29;20318;-67
2023/12/07 12:49:37;;;;;;;8.80;6.93;;;;;;;;;;5997476;29;20583;-67
2023/12/07 12:52:41;;;;;;;7.57;6.37;;;;;;;;;;6000795;29;20756;-67
2023/12/07 12:55:47;;;;;;;10.80;6.77;;;;;;;;;;6020088;29;20294;-67
2023/12/07 12:58:52;;;;;;;6.70;5.67;;;;;;;;;;6019635;29;20295;-67
2023/12/07 13:01:57;;;;;;;6.43;5.93;;;;;;;;;;6020347;29;20619;-67
2023/12/07 13:05:02;;;;;;;6.27;5.70;;;;;;;;;;6023590;29;20304;-66
2023/12/07 13:08:05;;;;;;;6.03;4.83;;;;;;;;;;6023853;29;20302;-66
2023/12/07 13:11:18;;;;;;;9.43;5.80;;;;;;;;;;6010148;29;20298;-66
2023/12/07 13:14:21;;;;;;;9.07;5.70;;;;;;;;;;6023434;29;20301;-67
2023/12/07 13:17:27;;;;;;;6.63;5.90;;;;;;;;;;6023973;29;20621;-67
2023/12/07 13:20:31;;;;;;;6.03;5.43;;;;;;;;;;6038182;29;20479;-66
2023/12/07 13:23:52;;;;;;;6.13;5.53;;;;;;;;;;6023696;29;20298;-66
2023/12/07 13:26:56;;;;;;;6.00;5.40;;;;;;;;;;6023967;29;20306;-67
2023/12/07 13:30:00;;;;;;;8.03;6.20;;;;;;;;;;6023928;29;20310;-67
2023/12/07 13:33:09;;;;;;;9.60;5.73;;;;;;;;;;6022610;29;20294;-67
2023/12/07 13:36:29;;;;;;;7.43;5.73;;;;;;;;;;6024298;29;20297;-67
2023/12/07 13:39:33;;;;;;;6.53;5.90;;;;;;;;;;6023392;29;20300;-67
2023/12/07 13:42:37;;;;;;;6.47;5.83;;;;;;;;;;6024364;29;20296;-67
2023/12/07 13:45:42;;;;;;;7.53;5.80;;;;;;;;;;6024149;29;20588;-67
2023/12/07 13:48:47;;;;;;;9.13;5.87;;;;;;;;;;6023027;29;20320;-68
2023/12/07 13:51:51;;;;;;;7.90;5.83;;;;;;;;;;6037526;29;20298;-67
2023/12/07 13:54:55;;;;;;;9.67;5.83;;;;;;;;;;6022985;29;20382;-67
2023/12/07 13:58:00;;;;;;;7.67;5.47;;;;;;;;;;6022333;29;20342;-67
2023/12/07 14:01:05;;;;;;;6.43;5.40;;;;;;;;;;6037873;29;20500;-67
2023/12/07 14:04:10;;;;;;;6.00;5.40;;;;;;;;;;6022571;29;20303;-67
2023/12/07 14:07:24;;;;;;;6.03;5.43;;;;;;;;;;6023248;29;20570;-67
2023/12/07 14:10:28;;;;;;;9.47;5.87;;;;;;;;;;6014757;29;20307;-67
2023/12/07 14:13:35;;;;;;;6.30;5.70;;;;;;;;;;6000017;29;20299;-67
2023/12/07 14:16:39;;;;;;;9.57;6.17;;;;;;;;;;5999477;29;20321;-66
2023/12/07 14:20:06;;;;;;;6.70;6.00;;;;;;;;;;5999886;29;20298;-67
2023/12/07 14:23:30;;;;;;;6.70;6.10;;;;;;;;;;5999492;29;20307;-67
2023/12/07 14:26:35;;;;;;;6.47;5.87;;;;;;;;;;5999948;29;20314;-67
2023/12/07 14:29:39;;;;;;;8.07;6.60;;;;;;;;;;5999475;29;20303;-67
2023/12/07 14:32:47;;;;;;;7.13;6.10;;;;;;;;;;5997592;29;20437;-67
2023/12/07 14:35:53;;;;;;;6.70;6.10;;;;;;;;;;5999997;29;20291;-67
2023/12/07 14:38:57;;;;;;;7.27;6.50;;;;;;;;;;6000372;29;20300;-67
2023/12/07 14:42:01;;;;;;;7.00;6.30;;;;;;;;;;6000374;29;20319;-68
2023/12/07 14:45:07;;;;;;;8.77;6.63;;;;;;;;;;5999584;29;20263;-67
2023/12/07 14:48:11;;;;;;;6.83;6.13;;;;;;;;;;5999310;29;20379;-67
2023/12/07 14:51:21;;;;;;;7.07;6.37;;;;;;;;;;6000631;29;20328;-68
2023/12/07 14:54:25;;;;;;;6.97;6.20;;;;;;;;;;6016450;29;20299;-67
2023/12/07 14:57:33;;;;;;;7.13;6.50;;;;;;;;;;6036936;29;20298;-67
2023/12/07 15:00:37;;;;;;;8.53;6.13;;;;;;;;;;6022457;29;20297;-67
2023/12/07 15:03:41;;;;;;;9.77;6.90;;;;;;;;;;6021997;29;20432;-67
2023/12/07 15:06:48;;;;;;;8.77;6.40;;;;;;;;;;6016938;29;20307;-67
2023/12/07 15:09:58;;;;;;;7.87;6.67;;;;;;;;;;6006279;29;20302;-67
2023/12/07 15:13:03;;;;;;;7.40;6.70;;;;;;;;;;5999152;29;20495;-70
2023/12/07 15:16:07;;;;;;;7.83;7.03;;;;;;;;;;5999099;29;20322;-67
2023/12/07 15:19:11;;;;;;;8.33;7.00;;;;;;;;;;5999240;29;20592;-67
2023/12/07 15:22:17;;;;;;;7.10;6.40;;;;;;;;;;5998415;29;20604;-67
2023/12/07 15:25:22;;;;;;;8.57;6.60;;;;;;;;;;5998546;29;20292;-67
2023/12/07 15:28:27;;;;;;;7.70;6.70;;;;;;;;;;5998546;29;20308;-67
2023/12/07 15:31:30;;;;;;;8.77;7.10;;;;;;;;;;5999778;29;20322;-67
2023/12/07 15:34:35;;;;;;;11.13;7.63;;;;;;;;;;5998656;29;20299;-67
2023/12/07 15:37:45;;;;;;;8.53;7.63;;;;;;;;;;5998536;29;20306;-66
2023/12/07 15:40:49;;;;;;;9.73;7.50;;;;;;;;;;5999448;29;20291;-67
2023/12/07 15:43:53;;;;;;;10.17;6.80;;;;;;;;;;6000205;29;20292;-67
2023/12/07 15:46:56;;;;;;;9.07;7.37;;;;;;;;;;5998877;29;20298;-67
2023/12/07 15:50:01;;;;;;;9.17;6.87;;;;;;;;;;6017912;29;20310;-67
2023/12/07 15:53:07;;;;;;;8.07;7.00;;;;;;;;;;6020380;29;20301;-67
2023/12/07 15:56:11;;;;;;;8.67;7.00;;;;;;;;;;6021766;29;20304;-67
2023/12/07 15:59:16;;;;;;;12.47;7.73;;;;;;;;;;6021369;29;20304;-67
2023/12/07 16:02:20;;;;;;;13.63;7.60;;;;;;;;;;6021062;29;20587;-68
2023/12/07 16:05:24;;;;;;;12.43;8.00;;;;;;;;;;6020690;29;20306;-67
2023/12/07 16:08:30;;;;;;;9.10;7.93;;;;;;;;;;6021897;29;20303;-67
2023/12/07 16:11:33;;;;;;;9.10;7.23;;;;;;;;;;6005491;29;20302;-67
2023/12/07 16:14:38;;;;;;;10.77;7.70;;;;;;;;;;5998637;29;20307;-67
2023/12/07 16:17:42;;;;;;;8.83;7.33;;;;;;;;;;5997542;29;22718;-68
2023/12/07 16:20:47;;;;;;;10.80;7.77;;;;;;;;;;5998444;29;20326;-67
2023/12/07 16:23:52;;;;;;;13.83;7.77;;;;;;;;;;5998153;29;20300;-68
2023/12/07 16:26:58;;;;;;;10.53;7.83;;;;;;;;;;5998790;29;20547;-67
2023/12/07 16:30:10;;;;;;;15.37;7.57;;;;;;;;;;5998177;29;20299;-67
2023/12/07 16:33:13;;;;;;;9.33;7.00;;;;;;;;;;5998807;29;20293;-67
2023/12/07 16:36:17;;;;;;;11.43;7.73;;;;;;;;;;5998940;29;20299;-68
2023/12/07 16:39:27;;;;;;;12.10;7.30;;;;;;;;;;6008400;29;20295;-68
2023/12/07 16:42:31;;;;;;;16.47;7.43;;;;;;;;;;6025000;29;20296;-68
2023/12/07 16:45:36;;;;;;;8.97;7.03;;;;;;;;;;6003947;29;20294;-68
2023/12/07 16:48:39;;;;;;;9.77;6.63;;;;;;;;;;6016061;29;20328;-68
2023/12/07 16:51:43;;;;;;;8.20;6.57;;;;;;;;;;6002595;29;20296;-67
2023/12/07 16:54:49;;;;;;;7.57;6.63;;;;;;;;;;6022693;29;20298;-69
2023/12/07 16:57:52;;;;;;;8.13;7.27;;;;;;;;;;6023993;29;20296;-67
2023/12/07 17:00:58;;;;;;;9.87;7.57;;;;;;;;;;6001986;29;20310;-67
2023/12/07 17:04:02;;;;;;;11.03;7.40;;;;;;;;;;6001355;29;20296;-66
2023/12/07 17:07:07;;;;;;;10.67;7.07;;;;;;;;;;6001749;29;20296;-66
2023/12/07 17:10:12;;;;;;;10.07;7.07;;;;;;;;;;6007246;29;20562;-68
2023/12/07 17:13:16;;;;;;;8.93;7.27;;;;;;;;;;6023509;29;20331;-66
2023/12/07 17:16:20;;;;;;;9.03;7.47;;;;;;;;;;6024684;29;20301;-67
2023/12/07 17:19:24;;;;;;;9.07;7.17;;;;;;;;;;6023853;29;20424;-67
2023/12/07 17:22:36;;;;;;;9.53;7.67;;;;;;;;;;6023746;29;20303;-67
2023/12/07 17:25:42;;;;;;;12.27;7.63;;;;;;;;;;6023910;29;20297;-67
2023/12/07 17:28:47;;;;;;;8.27;7.47;;;;;;;;;;6023876;29;20319;-67
2023/12/07 17:31:51;;;;;;;9.50;7.80;;;;;;;;;;6024126;29;20493;-67
2023/12/07 17:34:55;;;;;;;7.93;7.13;;;;;;;;;;6023479;29;20303;-67
2023/12/07 17:37:59;;;;;;;11.57;8.13;;;;;;;;;;6024572;29;20324;-67
2023/12/07 17:41:04;;;;;;;12.00;7.90;;;;;;;;;;6023443;29;20588;-67
2023/12/07 17:44:08;;;;;;;11.83;7.97;;;;;;;;;;6023144;29;20306;-67
2023/12/07 17:47:12;;;;;;;10.20;7.77;;;;;;;;;;6023766;29;20302;-68
2023/12/07 17:50:16;;;;;;;9.47;7.47;;;;;;;;;;6023138;29;20306;-67
2023/12/07 17:53:20;;;;;;;11.87;7.77;;;;;;;;;;6022981;29;20318;-67
2023/12/07 17:56:25;;;;;;;12.40;8.47;;;;;;;;;;6023909;29;20305;-69
2023/12/07 17:59:29;;;;;;;9.97;7.67;;;;;;;;;;6036859;29;20504;-67
2023/12/07 18:02:33;;;;;;;11.17;7.67;;;;;;;;;;6022302;29;20298;-67
2023/12/07 18:05:37;;;;;;;10.83;7.60;;;;;;;;;;6023005;29;20296;-68
2023/12/07 18:08:41;;;;;;;11.07;7.50;;;;;;;;;;6021726;29;20789;-68
2023/12/07 18:11:47;;;;;;;11.23;7.40;;;;;;;;;;6005422;29;20315;-67
2023/12/07 18:14:50;;;;;;;12.47;8.17;;;;;;;;;;5999926;29;20305;-68
2023/12/07 18:17:54;;;;;;;13.30;8.40;;;;;;;;;;5999767;29;20324;-68
2023/12/07 18:20:58;;;;;;;11.13;7.67;;;;;;;;;;6000237;29;20601;-68
2023/12/07 18:24:02;;;;;;;10.27;8.20;;;;;;;;;;5998304;29;20491;-68
2023/12/07 18:27:08;;;;;;;11.80;8.00;;;;;;;;;;6000578;29;20305;-68